Terminal Aerodrome Forecast
Issued by NWS Albuquerque, NM

Home | Current Version | Previous Version | Text Only | Print | Product List | Glossary On
Versions: 1 2 3 4 5 6 7 8 9 10 11 12 13
920
FTUS45 KABQ 082336
TAFABQ
TAF
KABQ 082336Z 0900/0924 36010KT P6SM FEW250
     FM090200 01005KT P6SM SKC
     FM092100 30005KT P6SM SKC=

USA.gov is the U.S. government's official web portal to all federal, state and local government web resources and services.